sensor_id;sensor_type;location;lat;lon;timestamp;P1;durP1;ratioP1;P2;durP2;ratioP2
6997;SDS011;3539;47.982;12.238;2023-01-23T00:01:31;26.23;;;14.87;;
6997;SDS011;3539;47.982;12.238;2023-01-23T00:03:59;25.40;;;16.20;;
6997;SDS011;3539;47.982;12.238;2023-01-23T00:06:26;28.17;;;16.97;;
6997;SDS011;3539;47.982;12.238;2023-01-23T00:08:53;30.07;;;16.00;;
6997;SDS011;3539;47.982;12.238;2023-01-23T00:11:21;26.03;;;15.03;;
6997;SDS011;3539;47.982;12.238;2023-01-23T00:13:50;26.57;;;15.60;;
6997;SDS011;3539;47.982;12.238;2023-01-23T00:16:18;24.47;;;13.97;;
6997;SDS011;3539;47.982;12.238;2023-01-23T00:18:46;26.83;;;14.43;;
6997;SDS011;3539;47.982;12.238;2023-01-23T00:21:13;23.97;;;13.70;;
6997;SDS011;3539;47.982;12.238;2023-01-23T00:23:41;22.20;;;13.20;;
6997;SDS011;3539;47.982;12.238;2023-01-23T00:26:11;22.77;;;14.20;;
6997;SDS011;3539;47.982;12.238;2023-01-23T00:28:39;26.17;;;13.80;;
6997;SDS011;3539;47.982;12.238;2023-01-23T00:31:08;23.97;;;13.60;;
6997;SDS011;3539;47.982;12.238;2023-01-23T00:33:37;20.90;;;13.47;;
6997;SDS011;3539;47.982;12.238;2023-01-23T00:36:04;25.30;;;14.00;;
6997;SDS011;3539;47.982;12.238;2023-01-23T00:38:31;23.23;;;13.17;;
6997;SDS011;3539;47.982;12.238;2023-01-23T00:40:58;23.33;;;13.90;;
6997;SDS011;3539;47.982;12.238;2023-01-23T00:43:26;26.97;;;13.93;;
6997;SDS011;3539;47.982;12.238;2023-01-23T00:45:53;24.37;;;15.07;;
6997;SDS011;3539;47.982;12.238;2023-01-23T00:48:22;24.60;;;14.23;;
6997;SDS011;3539;47.982;12.238;2023-01-23T00:50:48;23.93;;;13.93;;
6997;SDS011;3539;47.982;12.238;2023-01-23T00:53:15;25.83;;;15.37;;
6997;SDS011;3539;47.982;12.238;2023-01-23T00:55:42;27.60;;;14.80;;
6997;SDS011;3539;47.982;12.238;2023-01-23T00:58:08;26.63;;;15.17;;
6997;SDS011;3539;47.982;12.238;2023-01-23T01:00:35;25.10;;;15.10;;
6997;SDS011;3539;47.982;12.238;2023-01-23T01:03:02;26.67;;;15.13;;
6997;SDS011;3539;47.982;12.238;2023-01-23T01:05:31;24.70;;;16.00;;
6997;SDS011;3539;47.982;12.238;2023-01-23T01:07:58;24.63;;;14.37;;
6997;SDS011;3539;47.982;12.238;2023-01-23T01:10:25;23.53;;;14.60;;
6997;SDS011;3539;47.982;12.238;2023-01-23T01:12:53;24.73;;;14.73;;
6997;SDS011;3539;47.982;12.238;2023-01-23T01:15:20;25.73;;;14.53;;
6997;SDS011;3539;47.982;12.238;2023-01-23T01:17:47;29.67;;;16.07;;
6997;SDS011;3539;47.982;12.238;2023-01-23T01:20:14;28.53;;;15.67;;
6997;SDS011;3539;47.982;12.238;2023-01-23T01:22:42;30.43;;;17.37;;
6997;SDS011;3539;47.982;12.238;2023-01-23T01:25:09;29.10;;;15.30;;
6997;SDS011;3539;47.982;12.238;2023-01-23T01:27:36;27.00;;;15.13;;
6997;SDS011;3539;47.982;12.238;2023-01-23T01:30:03;27.73;;;15.90;;
6997;SDS011;3539;47.982;12.238;2023-01-23T01:32:30;31.60;;;16.97;;
6997;SDS011;3539;47.982;12.238;2023-01-23T01:34:57;26.00;;;14.27;;
6997;SDS011;3539;47.982;12.238;2023-01-23T01:37:24;24.67;;;15.30;;
6997;SDS011;3539;47.982;12.238;2023-01-23T01:39:52;25.57;;;16.20;;
6997;SDS011;3539;47.982;12.238;2023-01-23T01:42:19;26.10;;;15.07;;
6997;SDS011;3539;47.982;12.238;2023-01-23T01:44:50;26.67;;;15.23;;
6997;SDS011;3539;47.982;12.238;2023-01-23T01:47:18;27.40;;;15.53;;
6997;SDS011;3539;47.982;12.238;2023-01-23T01:49:45;24.53;;;15.67;;
6997;SDS011;3539;47.982;12.238;2023-01-23T01:52:12;28.10;;;15.63;;
6997;SDS011;3539;47.982;12.238;2023-01-23T01:54:40;26.37;;;15.13;;
6997;SDS011;3539;47.982;12.238;2023-01-23T01:57:10;26.20;;;14.47;;
6997;SDS011;3539;47.982;12.238;2023-01-23T01:59:40;24.57;;;14.37;;
6997;SDS011;3539;47.982;12.238;2023-01-23T02:02:10;25.97;;;14.83;;
6997;SDS011;3539;47.982;12.238;2023-01-23T02:04:39;26.83;;;16.40;;
6997;SDS011;3539;47.982;12.238;2023-01-23T02:07:10;27.37;;;15.50;;
6997;SDS011;3539;47.982;12.238;2023-01-23T02:09:54;28.53;;;15.67;;
6997;SDS011;3539;47.982;12.238;2023-01-23T02:12:23;24.73;;;14.13;;
6997;SDS011;3539;47.982;12.238;2023-01-23T02:14:52;23.80;;;15.00;;
6997;SDS011;3539;47.982;12.238;2023-01-23T02:17:18;25.50;;;16.17;;
6997;SDS011;3539;47.982;12.238;2023-01-23T02:19:48;26.43;;;16.10;;
6997;SDS011;3539;47.982;12.238;2023-01-23T02:22:23;26.23;;;15.77;;
6997;SDS011;3539;47.982;12.238;2023-01-23T02:24:58;25.03;;;14.77;;
6997;SDS011;3539;47.982;12.238;2023-01-23T02:27:30;24.00;;;15.23;;
6997;SDS011;3539;47.982;12.238;2023-01-23T02:29:57;24.43;;;15.20;;
6997;SDS011;3539;47.982;12.238;2023-01-23T02:32:24;24.73;;;16.27;;
6997;SDS011;3539;47.982;12.238;2023-01-23T02:34:51;25.13;;;15.90;;
6997;SDS011;3539;47.982;12.238;2023-01-23T02:37:20;23.73;;;15.43;;
6997;SDS011;3539;47.982;12.238;2023-01-23T02:39:50;24.97;;;15.53;;
6997;SDS011;3539;47.982;12.238;2023-01-23T02:42:16;28.00;;;15.97;;
6997;SDS011;3539;47.982;12.238;2023-01-23T02:44:44;26.37;;;15.90;;
6997;SDS011;3539;47.982;12.238;2023-01-23T02:47:11;23.73;;;14.50;;
6997;SDS011;3539;47.982;12.238;2023-01-23T02:49:38;27.67;;;15.57;;
6997;SDS011;3539;47.982;12.238;2023-01-23T02:52:06;26.27;;;16.50;;
6997;SDS011;3539;47.982;12.238;2023-01-23T02:54:33;27.50;;;17.37;;
6997;SDS011;3539;47.982;12.238;2023-01-23T02:57:00;26.87;;;17.30;;
6997;SDS011;3539;47.982;12.238;2023-01-23T02:59:27;26.77;;;16.57;;
6997;SDS011;3539;47.982;12.238;2023-01-23T03:02:12;28.43;;;17.20;;
6997;SDS011;3539;47.982;12.238;2023-01-23T03:04:39;27.10;;;16.57;;
6997;SDS011;3539;47.982;12.238;2023-01-23T03:07:06;27.53;;;16.20;;
6997;SDS011;3539;47.982;12.238;2023-01-23T03:09:33;26.47;;;16.80;;
6997;SDS011;3539;47.982;12.238;2023-01-23T03:12:00;26.07;;;16.40;;
6997;SDS011;3539;47.982;12.238;2023-01-23T03:14:26;26.13;;;16.53;;
6997;SDS011;3539;47.982;12.238;2023-01-23T03:16:54;28.53;;;16.93;;
6997;SDS011;3539;47.982;12.238;2023-01-23T03:19:23;26.17;;;16.50;;
6997;SDS011;3539;47.982;12.238;2023-01-23T03:21:50;23.23;;;15.43;;
6997;SDS011;3539;47.982;12.238;2023-01-23T03:24:18;25.50;;;16.50;;
6997;SDS011;3539;47.982;12.238;2023-01-23T03:26:45;24.53;;;16.17;;
6997;SDS011;3539;47.982;12.238;2023-01-23T03:29:13;26.83;;;16.43;;
6997;SDS011;3539;47.982;12.238;2023-01-23T03:31:59;25.90;;;16.80;;
6997;SDS011;3539;47.982;12.238;2023-01-23T03:34:27;24.13;;;15.40;;
6997;SDS011;3539;47.982;12.238;2023-01-23T03:36:54;25.47;;;16.53;;
6997;SDS011;3539;47.982;12.238;2023-01-23T03:39:21;24.57;;;15.73;;
6997;SDS011;3539;47.982;12.238;2023-01-23T03:42:05;23.33;;;15.03;;
6997;SDS011;3539;47.982;12.238;2023-01-23T03:44:32;27.43;;;16.60;;
6997;SDS011;3539;47.982;12.238;2023-01-23T03:46:59;22.43;;;14.63;;
6997;SDS011;3539;47.982;12.238;2023-01-23T03:49:25;24.97;;;14.90;;
6997;SDS011;3539;47.982;12.238;2023-01-23T03:51:54;26.33;;;16.27;;
6997;SDS011;3539;47.982;12.238;2023-01-23T03:54:21;24.73;;;16.17;;
6997;SDS011;3539;47.982;12.238;2023-01-23T03:56:47;26.57;;;16.90;;
6997;SDS011;3539;47.982;12.238;2023-01-23T03:59:14;26.93;;;16.73;;
6997;SDS011;3539;47.982;12.238;2023-01-23T04:01:41;25.60;;;16.00;;
6997;SDS011;3539;47.982;12.238;2023-01-23T04:04:08;25.97;;;16.80;;
6997;SDS011;3539;47.982;12.238;2023-01-23T04:06:36;25.13;;;16.17;;
6997;SDS011;3539;47.982;12.238;2023-01-23T04:09:02;27.60;;;15.63;;
6997;SDS011;3539;47.982;12.238;2023-01-23T04:11:29;24.20;;;17.17;;
6997;SDS011;3539;47.982;12.238;2023-01-23T04:13:56;28.53;;;17.93;;
6997;SDS011;3539;47.982;12.238;2023-01-23T04:16:23;25.47;;;17.23;;
6997;SDS011;3539;47.982;12.238;2023-01-23T04:18:51;26.87;;;17.50;;
6997;SDS011;3539;47.982;12.238;2023-01-23T04:21:18;23.67;;;15.70;;
6997;SDS011;3539;47.982;12.238;2023-01-23T04:23:46;25.60;;;17.20;;
6997;SDS011;3539;47.982;12.238;2023-01-23T04:26:13;26.57;;;16.97;;
6997;SDS011;3539;47.982;12.238;2023-01-23T04:28:40;27.30;;;17.40;;
6997;SDS011;3539;47.982;12.238;2023-01-23T04:31:07;26.37;;;17.27;;
6997;SDS011;3539;47.982;12.238;2023-01-23T04:33:34;28.03;;;17.90;;
6997;SDS011;3539;47.982;12.238;2023-01-23T04:36:02;26.33;;;16.53;;
6997;SDS011;3539;47.982;12.238;2023-01-23T04:38:30;25.13;;;16.53;;
6997;SDS011;3539;47.982;12.238;2023-01-23T04:40:58;27.03;;;17.03;;
6997;SDS011;3539;47.982;12.238;2023-01-23T04:43:25;26.23;;;16.53;;
6997;SDS011;3539;47.982;12.238;2023-01-23T04:45:52;30.33;;;16.80;;
6997;SDS011;3539;47.982;12.238;2023-01-23T04:48:19;26.33;;;16.73;;
6997;SDS011;3539;47.982;12.238;2023-01-23T04:50:46;29.07;;;17.73;;
6997;SDS011;3539;47.982;12.238;2023-01-23T04:53:13;29.20;;;16.93;;
6997;SDS011;3539;47.982;12.238;2023-01-23T04:55:39;30.73;;;17.80;;
6997;SDS011;3539;47.982;12.238;2023-01-23T04:58:08;29.43;;;17.57;;
6997;SDS011;3539;47.982;12.238;2023-01-23T05:00:36;30.40;;;17.30;;
6997;SDS011;3539;47.982;12.238;2023-01-23T05:03:03;32.13;;;18.40;;
6997;SDS011;3539;47.982;12.238;2023-01-23T05:05:30;32.13;;;18.60;;
6997;SDS011;3539;47.982;12.238;2023-01-23T05:07:57;29.30;;;17.97;;
6997;SDS011;3539;47.982;12.238;2023-01-23T05:10:23;31.43;;;18.53;;
6997;SDS011;3539;47.982;12.238;2023-01-23T05:12:50;31.77;;;18.90;;
6997;SDS011;3539;47.982;12.238;2023-01-23T05:15:18;30.87;;;18.10;;
6997;SDS011;3539;47.982;12.238;2023-01-23T05:17:46;31.50;;;18.73;;
6997;SDS011;3539;47.982;12.238;2023-01-23T05:20:13;32.27;;;18.10;;
6997;SDS011;3539;47.982;12.238;2023-01-23T05:22:39;31.60;;;18.50;;
6997;SDS011;3539;47.982;12.238;2023-01-23T05:25:16;31.47;;;17.87;;
6997;SDS011;3539;47.982;12.238;2023-01-23T05:27:43;29.73;;;17.97;;
6997;SDS011;3539;47.982;12.238;2023-01-23T05:30:10;29.33;;;18.77;;
6997;SDS011;3539;47.982;12.238;2023-01-23T05:32:39;30.53;;;19.43;;
6997;SDS011;3539;47.982;12.238;2023-01-23T05:35:06;32.27;;;19.40;;
6997;SDS011;3539;47.982;12.238;2023-01-23T05:37:33;28.17;;;17.87;;
6997;SDS011;3539;47.982;12.238;2023-01-23T05:40:00;28.63;;;18.20;;
6997;SDS011;3539;47.982;12.238;2023-01-23T05:42:27;26.00;;;17.63;;
6997;SDS011;3539;47.982;12.238;2023-01-23T05:44:53;26.27;;;17.17;;
6997;SDS011;3539;47.982;12.238;2023-01-23T05:47:20;27.97;;;18.57;;
6997;SDS011;3539;47.982;12.238;2023-01-23T05:49:48;29.17;;;19.23;;
6997;SDS011;3539;47.982;12.238;2023-01-23T05:52:15;25.80;;;17.80;;
6997;SDS011;3539;47.982;12.238;2023-01-23T05:54:42;29.67;;;17.93;;
6997;SDS011;3539;47.982;12.238;2023-01-23T05:57:09;30.27;;;19.50;;
6997;SDS011;3539;47.982;12.238;2023-01-23T05:59:36;26.47;;;17.10;;
6997;SDS011;3539;47.982;12.238;2023-01-23T06:02:03;29.83;;;18.67;;
6997;SDS011;3539;47.982;12.238;2023-01-23T06:04:30;35.20;;;19.30;;
6997;SDS011;3539;47.982;12.238;2023-01-23T06:06:58;34.13;;;18.57;;
6997;SDS011;3539;47.982;12.238;2023-01-23T06:09:25;32.07;;;19.47;;
6997;SDS011;3539;47.982;12.238;2023-01-23T06:11:51;32.60;;;20.80;;
6997;SDS011;3539;47.982;12.238;2023-01-23T06:14:18;38.23;;;22.97;;
6997;SDS011;3539;47.982;12.238;2023-01-23T06:16:45;34.40;;;21.47;;
6997;SDS011;3539;47.982;12.238;2023-01-23T06:19:12;36.20;;;20.87;;
6997;SDS011;3539;47.982;12.238;2023-01-23T06:21:38;32.63;;;20.47;;
6997;SDS011;3539;47.982;12.238;2023-01-23T06:24:07;31.97;;;20.63;;
6997;SDS011;3539;47.982;12.238;2023-01-23T06:26:34;34.53;;;21.00;;
6997;SDS011;3539;47.982;12.238;2023-01-23T06:29:00;33.50;;;20.70;;
6997;SDS011;3539;47.982;12.238;2023-01-23T06:31:27;34.37;;;22.23;;
6997;SDS011;3539;47.982;12.238;2023-01-23T06:33:56;38.57;;;21.87;;
6997;SDS011;3539;47.982;12.238;2023-01-23T06:36:23;32.10;;;20.43;;
6997;SDS011;3539;47.982;12.238;2023-01-23T06:38:50;31.60;;;20.40;;
6997;SDS011;3539;47.982;12.238;2023-01-23T06:41:18;35.30;;;20.90;;
6997;SDS011;3539;47.982;12.238;2023-01-23T06:43:45;35.07;;;21.70;;
6997;SDS011;3539;47.982;12.238;2023-01-23T06:46:13;34.43;;;21.00;;
6997;SDS011;3539;47.982;12.238;2023-01-23T06:48:39;32.80;;;20.27;;
6997;SDS011;3539;47.982;12.238;2023-01-23T06:51:06;33.13;;;20.90;;
6997;SDS011;3539;47.982;12.238;2023-01-23T06:53:33;30.57;;;19.30;;
6997;SDS011;3539;47.982;12.238;2023-01-23T06:56:00;32.93;;;20.13;;
6997;SDS011;3539;47.982;12.238;2023-01-23T06:58:28;55.90;;;32.77;;
6997;SDS011;3539;47.982;12.238;2023-01-23T07:00:55;40.87;;;25.47;;
6997;SDS011;3539;47.982;12.238;2023-01-23T07:03:22;31.80;;;20.40;;
6997;SDS011;3539;47.982;12.238;2023-01-23T07:05:49;28.40;;;18.73;;
6997;SDS011;3539;47.982;12.238;2023-01-23T07:08:16;29.73;;;19.27;;
6997;SDS011;3539;47.982;12.238;2023-01-23T07:10:43;31.53;;;19.07;;
6997;SDS011;3539;47.982;12.238;2023-01-23T07:13:10;31.10;;;20.00;;
6997;SDS011;3539;47.982;12.238;2023-01-23T07:15:38;29.37;;;19.77;;
6997;SDS011;3539;47.982;12.238;2023-01-23T07:18:06;31.33;;;20.77;;
6997;SDS011;3539;47.982;12.238;2023-01-23T07:20:34;29.40;;;19.67;;
6997;SDS011;3539;47.982;12.238;2023-01-23T07:23:02;31.40;;;19.83;;
6997;SDS011;3539;47.982;12.238;2023-01-23T07:25:29;31.77;;;20.23;;
6997;SDS011;3539;47.982;12.238;2023-01-23T07:27:55;31.60;;;20.33;;
6997;SDS011;3539;47.982;12.238;2023-01-23T07:30:22;31.13;;;20.43;;
6997;SDS011;3539;47.982;12.238;2023-01-23T07:32:51;31.47;;;21.03;;
6997;SDS011;3539;47.982;12.238;2023-01-23T07:35:18;32.53;;;20.33;;
6997;SDS011;3539;47.982;12.238;2023-01-23T07:37:45;28.03;;;19.53;;
6997;SDS011;3539;47.982;12.238;2023-01-23T07:40:12;31.60;;;19.63;;
6997;SDS011;3539;47.982;12.238;2023-01-23T07:42:39;33.73;;;19.60;;
6997;SDS011;3539;47.982;12.238;2023-01-23T07:45:06;29.13;;;19.37;;
6997;SDS011;3539;47.982;12.238;2023-01-23T07:47:34;27.97;;;18.97;;
6997;SDS011;3539;47.982;12.238;2023-01-23T07:50:03;28.33;;;19.67;;
6997;SDS011;3539;47.982;12.238;2023-01-23T07:52:30;33.50;;;20.60;;
6997;SDS011;3539;47.982;12.238;2023-01-23T07:54:56;29.40;;;19.57;;
6997;SDS011;3539;47.982;12.238;2023-01-23T07:57:23;29.20;;;19.97;;
6997;SDS011;3539;47.982;12.238;2023-01-23T07:59:50;27.50;;;18.67;;
6997;SDS011;3539;47.982;12.238;2023-01-23T08:02:17;27.53;;;19.40;;
6997;SDS011;3539;47.982;12.238;2023-01-23T08:04:43;27.03;;;18.73;;
6997;SDS011;3539;47.982;12.238;2023-01-23T08:07:12;29.43;;;19.40;;
6997;SDS011;3539;47.982;12.238;2023-01-23T08:09:40;29.03;;;19.53;;
6997;SDS011;3539;47.982;12.238;2023-01-23T08:12:07;27.13;;;18.30;;
6997;SDS011;3539;47.982;12.238;2023-01-23T08:14:33;26.03;;;18.53;;
6997;SDS011;3539;47.982;12.238;2023-01-23T08:17:00;28.63;;;19.37;;
6997;SDS011;3539;47.982;12.238;2023-01-23T08:19:27;27.30;;;19.73;;
6997;SDS011;3539;47.982;12.238;2023-01-23T08:21:54;27.70;;;18.10;;
6997;SDS011;3539;47.982;12.238;2023-01-23T08:24:22;28.53;;;18.87;;
6997;SDS011;3539;47.982;12.238;2023-01-23T08:26:48;28.37;;;18.80;;
6997;SDS011;3539;47.982;12.238;2023-01-23T08:29:15;29.83;;;19.13;;
6997;SDS011;3539;47.982;12.238;2023-01-23T08:31:42;27.87;;;19.77;;
6997;SDS011;3539;47.982;12.238;2023-01-23T08:34:09;27.33;;;19.73;;
6997;SDS011;3539;47.982;12.238;2023-01-23T08:36:35;27.33;;;18.93;;
6997;SDS011;3539;47.982;12.238;2023-01-23T08:39:02;24.30;;;17.53;;
6997;SDS011;3539;47.982;12.238;2023-01-23T08:41:31;28.07;;;18.77;;
6997;SDS011;3539;47.982;12.238;2023-01-23T08:43:57;27.80;;;19.10;;
6997;SDS011;3539;47.982;12.238;2023-01-23T08:46:26;30.53;;;19.53;;
6997;SDS011;3539;47.982;12.238;2023-01-23T08:48:52;32.23;;;19.87;;
6997;SDS011;3539;47.982;12.238;2023-01-23T08:51:19;29.43;;;19.57;;
6997;SDS011;3539;47.982;12.238;2023-01-23T08:53:46;31.33;;;19.63;;
6997;SDS011;3539;47.982;12.238;2023-01-23T08:56:14;28.80;;;19.10;;
6997;SDS011;3539;47.982;12.238;2023-01-23T08:58:43;35.70;;;22.70;;
6997;SDS011;3539;47.982;12.238;2023-01-23T09:01:10;32.57;;;21.40;;
6997;SDS011;3539;47.982;12.238;2023-01-23T09:03:37;38.17;;;25.23;;
6997;SDS011;3539;47.982;12.238;2023-01-23T09:06:04;39.97;;;27.13;;
6997;SDS011;3539;47.982;12.238;2023-01-23T09:08:32;33.37;;;21.97;;
6997;SDS011;3539;47.982;12.238;2023-01-23T09:10:59;32.70;;;22.90;;
6997;SDS011;3539;47.982;12.238;2023-01-23T09:13:26;36.60;;;23.13;;
6997;SDS011;3539;47.982;12.238;2023-01-23T09:15:55;35.33;;;23.30;;
6997;SDS011;3539;47.982;12.238;2023-01-23T09:18:22;35.20;;;23.07;;
6997;SDS011;3539;47.982;12.238;2023-01-23T09:20:49;31.90;;;22.03;;
6997;SDS011;3539;47.982;12.238;2023-01-23T09:23:16;33.53;;;23.27;;
6997;SDS011;3539;47.982;12.238;2023-01-23T09:25:43;33.77;;;22.70;;
6997;SDS011;3539;47.982;12.238;2023-01-23T09:28:10;36.13;;;23.60;;
6997;SDS011;3539;47.982;12.238;2023-01-23T09:30:36;39.60;;;23.33;;
6997;SDS011;3539;47.982;12.238;2023-01-23T09:33:05;35.77;;;22.77;;
6997;SDS011;3539;47.982;12.238;2023-01-23T09:35:32;36.57;;;22.47;;
6997;SDS011;3539;47.982;12.238;2023-01-23T09:37:59;37.50;;;24.40;;
6997;SDS011;3539;47.982;12.238;2023-01-23T09:40:27;35.80;;;23.63;;
6997;SDS011;3539;47.982;12.238;2023-01-23T09:42:58;37.70;;;24.50;;
6997;SDS011;3539;47.982;12.238;2023-01-23T09:45:26;39.03;;;24.73;;
6997;SDS011;3539;47.982;12.238;2023-01-23T09:47:55;42.33;;;24.43;;
6997;SDS011;3539;47.982;12.238;2023-01-23T09:50:27;35.30;;;22.60;;
6997;SDS011;3539;47.982;12.238;2023-01-23T09:52:57;39.63;;;25.07;;
6997;SDS011;3539;47.982;12.238;2023-01-23T09:55:31;39.23;;;25.10;;
6997;SDS011;3539;47.982;12.238;2023-01-23T09:58:04;37.77;;;25.73;;
6997;SDS011;3539;47.982;12.238;2023-01-23T10:00:32;38.43;;;25.20;;
6997;SDS011;3539;47.982;12.238;2023-01-23T10:03:01;38.90;;;25.50;;
6997;SDS011;3539;47.982;12.238;2023-01-23T10:05:31;43.57;;;26.20;;
6997;SDS011;3539;47.982;12.238;2023-01-23T10:08:06;46.77;;;29.00;;
6997;SDS011;3539;47.982;12.238;2023-01-23T10:13:46;47.03;;;30.90;;
6997;SDS011;3539;47.982;12.238;2023-01-23T10:16:29;72.97;;;42.87;;
6997;SDS011;3539;47.982;12.238;2023-01-23T10:19:06;110.13;;;60.10;;
6997;SDS011;3539;47.982;12.238;2023-01-23T10:21:42;46.87;;;31.47;;
6997;SDS011;3539;47.982;12.238;2023-01-23T10:24:18;40.73;;;25.43;;
6997;SDS011;3539;47.982;12.238;2023-01-23T10:26:55;38.43;;;25.27;;
6997;SDS011;3539;47.982;12.238;2023-01-23T10:29:26;40.30;;;27.03;;
6997;SDS011;3539;47.982;12.238;2023-01-23T10:31:55;40.07;;;25.67;;
6997;SDS011;3539;47.982;12.238;2023-01-23T10:34:26;36.43;;;25.50;;
6997;SDS011;3539;47.982;12.238;2023-01-23T10:37:04;43.20;;;26.57;;
6997;SDS011;3539;47.982;12.238;2023-01-23T10:39:38;40.17;;;25.03;;
6997;SDS011;3539;47.982;12.238;2023-01-23T10:42:10;40.67;;;25.57;;
6997;SDS011;3539;47.982;12.238;2023-01-23T10:44:37;42.17;;;26.13;;
6997;SDS011;3539;47.982;12.238;2023-01-23T10:47:10;43.90;;;27.43;;
6997;SDS011;3539;47.982;12.238;2023-01-23T10:49:42;44.30;;;26.63;;
6997;SDS011;3539;47.982;12.238;2023-01-23T10:52:28;44.37;;;25.47;;
6997;SDS011;3539;47.982;12.238;2023-01-23T10:54:59;46.90;;;27.73;;
6997;SDS011;3539;47.982;12.238;2023-01-23T10:57:26;45.60;;;26.97;;
6997;SDS011;3539;47.982;12.238;2023-01-23T10:59:55;41.27;;;25.53;;
6997;SDS011;3539;47.982;12.238;2023-01-23T11:02:28;41.83;;;26.13;;
6997;SDS011;3539;47.982;12.238;2023-01-23T11:04:56;46.77;;;27.43;;
6997;SDS011;3539;47.982;12.238;2023-01-23T11:07:25;44.23;;;27.73;;
6997;SDS011;3539;47.982;12.238;2023-01-23T11:09:54;47.37;;;27.60;;
6997;SDS011;3539;47.982;12.238;2023-01-23T11:12:22;44.30;;;27.60;;
6997;SDS011;3539;47.982;12.238;2023-01-23T11:14:51;47.20;;;28.50;;
6997;SDS011;3539;47.982;12.238;2023-01-23T11:17:20;48.00;;;29.27;;
6997;SDS011;3539;47.982;12.238;2023-01-23T11:19:58;48.23;;;28.90;;
6997;SDS011;3539;47.982;12.238;2023-01-23T11:22:28;46.63;;;27.50;;
6997;SDS011;3539;47.982;12.238;2023-01-23T11:24:56;72.50;;;43.77;;
6997;SDS011;3539;47.982;12.238;2023-01-23T11:27:25;53.17;;;31.70;;
6997;SDS011;3539;47.982;12.238;2023-01-23T11:33:08;51.87;;;30.03;;
6997;SDS011;3539;47.982;12.238;2023-01-23T11:38:29;48.57;;;31.43;;
6997;SDS011;3539;47.982;12.238;2023-01-23T11:40:58;55.30;;;32.63;;
6997;SDS011;3539;47.982;12.238;2023-01-23T11:43:29;49.70;;;31.07;;
6997;SDS011;3539;47.982;12.238;2023-01-23T11:46:04;53.03;;;32.80;;
6997;SDS011;3539;47.982;12.238;2023-01-23T11:48:47;55.03;;;32.03;;
6997;SDS011;3539;47.982;12.238;2023-01-23T11:51:26;49.50;;;29.00;;
6997;SDS011;3539;47.982;12.238;2023-01-23T11:54:05;48.90;;;29.30;;
6997;SDS011;3539;47.982;12.238;2023-01-23T11:57:00;46.97;;;27.83;;
6997;SDS011;3539;47.982;12.238;2023-01-23T11:59:35;46.93;;;27.93;;
6997;SDS011;3539;47.982;12.238;2023-01-23T12:02:24;44.57;;;27.60;;
6997;SDS011;3539;47.982;12.238;2023-01-23T12:05:23;41.37;;;26.47;;
6997;SDS011;3539;47.982;12.238;2023-01-23T12:21:25;42.10;;;27.10;;
6997;SDS011;3539;47.982;12.238;2023-01-23T12:23:57;42.40;;;25.57;;
6997;SDS011;3539;47.982;12.238;2023-01-23T12:26:29;42.50;;;28.03;;
6997;SDS011;3539;47.982;12.238;2023-01-23T12:32:09;45.40;;;27.90;;
6997;SDS011;3539;47.982;12.238;2023-01-23T12:34:58;42.40;;;27.57;;
6997;SDS011;3539;47.982;12.238;2023-01-23T12:37:41;49.13;;;28.07;;
6997;SDS011;3539;47.982;12.238;2023-01-23T12:40:16;45.17;;;29.47;;
6997;SDS011;3539;47.982;12.238;2023-01-23T12:42:49;44.07;;;27.23;;
6997;SDS011;3539;47.982;12.238;2023-01-23T12:45:19;50.17;;;31.37;;
6997;SDS011;3539;47.982;12.238;2023-01-23T12:47:49;48.07;;;31.27;;
6997;SDS011;3539;47.982;12.238;2023-01-23T12:50:20;47.77;;;28.60;;
6997;SDS011;3539;47.982;12.238;2023-01-23T12:52:52;43.80;;;28.77;;
6997;SDS011;3539;47.982;12.238;2023-01-23T12:55:23;46.97;;;28.27;;
6997;SDS011;3539;47.982;12.238;2023-01-23T12:57:51;46.93;;;28.67;;
6997;SDS011;3539;47.982;12.238;2023-01-23T13:00:24;45.80;;;28.13;;
6997;SDS011;3539;47.982;12.238;2023-01-23T13:02:59;47.47;;;30.10;;
6997;SDS011;3539;47.982;12.238;2023-01-23T13:05:38;46.10;;;28.53;;
6997;SDS011;3539;47.982;12.238;2023-01-23T13:08:15;44.47;;;28.53;;
6997;SDS011;3539;47.982;12.238;2023-01-23T13:10:55;48.77;;;28.83;;
6997;SDS011;3539;47.982;12.238;2023-01-23T13:13:45;45.43;;;27.83;;
6997;SDS011;3539;47.982;12.238;2023-01-23T13:16:12;45.10;;;28.10;;
6997;SDS011;3539;47.982;12.238;2023-01-23T13:18:50;57.77;;;34.50;;
6997;SDS011;3539;47.982;12.238;2023-01-23T13:21:36;60.23;;;37.27;;
6997;SDS011;3539;47.982;12.238;2023-01-23T13:24:26;68.43;;;42.00;;
6997;SDS011;3539;47.982;12.238;2023-01-23T13:36:29;47.77;;;29.37;;
6997;SDS011;3539;47.982;12.238;2023-01-23T13:41:48;64.37;;;41.77;;
6997;SDS011;3539;47.982;12.238;2023-01-23T13:44:18;55.83;;;36.10;;
6997;SDS011;3539;47.982;12.238;2023-01-23T13:47:08;51.23;;;30.20;;
6997;SDS011;3539;47.982;12.238;2023-01-23T13:49:59;57.97;;;35.13;;
6997;SDS011;3539;47.982;12.238;2023-01-23T13:52:31;57.07;;;35.23;;
6997;SDS011;3539;47.982;12.238;2023-01-23T13:55:21;62.72;;;38.03;;
6997;SDS011;3539;47.982;12.238;2023-01-23T13:58:09;49.73;;;30.83;;
6997;SDS011;3539;47.982;12.238;2023-01-23T14:00:38;59.93;;;35.33;;
6997;SDS011;3539;47.982;12.238;2023-01-23T14:03:15;51.23;;;32.30;;
6997;SDS011;3539;47.982;12.238;2023-01-23T14:06:07;54.67;;;34.23;;
6997;SDS011;3539;47.982;12.238;2023-01-23T14:08:44;71.00;;;39.80;;
6997;SDS011;3539;47.982;12.238;2023-01-23T14:11:12;93.63;;;53.73;;
6997;SDS011;3539;47.982;12.238;2023-01-23T14:13:46;68.13;;;38.17;;
6997;SDS011;3539;47.982;12.238;2023-01-23T14:16:14;45.50;;;29.00;;
6997;SDS011;3539;47.982;12.238;2023-01-23T14:18:48;42.17;;;27.67;;
6997;SDS011;3539;47.982;12.238;2023-01-23T14:21:16;43.40;;;26.27;;
6997;SDS011;3539;47.982;12.238;2023-01-23T14:23:48;44.70;;;26.03;;
6997;SDS011;3539;47.982;12.238;2023-01-23T14:26:17;45.47;;;27.30;;
6997;SDS011;3539;47.982;12.238;2023-01-23T14:28:52;43.90;;;27.00;;
6997;SDS011;3539;47.982;12.238;2023-01-23T14:31:28;47.77;;;27.47;;
6997;SDS011;3539;47.982;12.238;2023-01-23T14:34:15;41.30;;;26.00;;
6997;SDS011;3539;47.982;12.238;2023-01-23T14:36:54;45.30;;;27.37;;
6997;SDS011;3539;47.982;12.238;2023-01-23T14:42:42;45.53;;;27.90;;
6997;SDS011;3539;47.982;12.238;2023-01-23T14:48:03;46.27;;;27.90;;
6997;SDS011;3539;47.982;12.238;2023-01-23T14:50:59;46.97;;;28.20;;
6997;SDS011;3539;47.982;12.238;2023-01-23T14:57:09;42.47;;;27.13;;
6997;SDS011;3539;47.982;12.238;2023-01-23T14:59:59;48.30;;;28.00;;
6997;SDS011;3539;47.982;12.238;2023-01-23T15:05:22;46.83;;;28.33;;
6997;SDS011;3539;47.982;12.238;2023-01-23T15:07:51;46.97;;;26.97;;
6997;SDS011;3539;47.982;12.238;2023-01-23T15:10:22;47.37;;;25.53;;
6997;SDS011;3539;47.982;12.238;2023-01-23T15:12:52;49.27;;;28.83;;
6997;SDS011;3539;47.982;12.238;2023-01-23T15:15:23;51.20;;;29.03;;
6997;SDS011;3539;47.982;12.238;2023-01-23T15:18:18;43.40;;;27.47;;
6997;SDS011;3539;47.982;12.238;2023-01-23T15:20:54;46.80;;;27.73;;
6997;SDS011;3539;47.982;12.238;2023-01-23T15:23:27;50.63;;;27.67;;
6997;SDS011;3539;47.982;12.238;2023-01-23T15:37:45;49.90;;;27.13;;
6997;SDS011;3539;47.982;12.238;2023-01-23T15:40:15;55.43;;;29.20;;
6997;SDS011;3539;47.982;12.238;2023-01-23T15:42:57;53.90;;;29.27;;
6997;SDS011;3539;47.982;12.238;2023-01-23T15:45:28;51.37;;;28.07;;
6997;SDS011;3539;47.982;12.238;2023-01-23T15:48:00;49.93;;;27.00;;
6997;SDS011;3539;47.982;12.238;2023-01-23T15:50:31;50.60;;;25.67;;
6997;SDS011;3539;47.982;12.238;2023-01-23T15:53:02;49.57;;;26.73;;